Pagina principale
METAR-TAF:

METAR-TAF

Aeroporti :

Aeroporto di Madera

Funchal, Madera, Portogallo

latitudine: 32-41-52N, longitudine: 016-46-28W, altezza: 59 m

Osservazione

Il bollettino è stato emesso 39 minuti fa, alle 02:00 UTC
Vento 1 kt da direzioni variabili
Temperature 18°C
Umidità 68%
Pressione 1022 hPa
Visibilità 10 km o più
Poco nuvoloso ad un'altezza di 1600 ft

METAR: LPMA 160200Z VRB01KT 9999 FEW016 18/12 Q1022

Ora: 03:39 (02:39 UTC)

Previsione

Il bollettino è stato emesso 3 ore e 39 minuti fa, alle 23:00 UTC
Previsione valida dal 16 alle 00 UTC al 16 alle 24 UTC
Vento 5 kt da direzioni variabili
Visibilità 10 km o più
Nubi sparse ad un'altezza di 1600 ft
Evoluzione graduale
dal 16 alle 09 UTC al 16 alle 12 UTC
Vento 8 kt da sud-ovest
Nubi sparse ad un'altezza di 1500 ft
Nuvoloso ad un'altezza di 3000 ft

TAF: LPMA 152300Z 1600/1624 VRB05KT 9999 SCT016 BECMG 1609/1612 22008KT SCT015 BKN030

Osservazioni e previsioni meteorologiche di più di 4000 aeroporti (messaggi METAR e TAF).

Le stazioni disponibili sono rappresentate dai dischi gialli e rossi sulla carta.

Puntare il mouse per vedere il nome della stazione.

Clicca sopra per visualizzare le osservazioni e previsioni meteorologiche.

Per cambiare la mappa : fare clic sui pulsanti verdi con una croce nera per ingrandire, il pulsante verde con un trattino per diminuire, o sulla freccia verde per le mappe adiacenti.


METAR-TAF: